Grangerland, Texas
Current Conditions -  °F | °C
As of 11:53 PM on Saturday 20 Dec 2014 (Local Time) from KCXO Reporting Station
Overcast Overcast  
Wind Chill: 50°   Ceiling: 2100
Heat Index: 50°   Visibility: 10mi
Dew Point: 46°   Wind: 6mph
Humidity: 86%   Direction: 90°E
Pressure: 30.19"   Gusts: NA
Location:  30.2363°N, 95.376°W
Report Text: KCXO 210553Z AUTO 09005KT 10SM OVC021 10/08 A3019 RMK AO2 SLP222 T01000078 10111 20100 401110089 58001
Loading
Personal Weather Stations






























Interactive Weather Map New forecast layout! Learn more

10-Day Weather Forecast

Advertisements
Track Severe Weather on mobile